Terminal Aerodrome Forecast
Issued by NWS

Home | Current Version | Previous Version | Text Only | Print | Product List | Glossary On
Versions: 1 2 3 4 5 6 7 8 9 10 11 12 13 14 15 16
000
FTUS43 KGRB 250500
TAFCWA
TAF
KCWA 250520Z 2506/2606 12006KT 4SM -RA BR SCT005 OVC012
      TEMPO 2506/2507 1SM -RA BR BKN005
     FM250700 VRB03KT 1SM BR BKN005 OVC012
     FM251000 28006KT P6SM BKN018 BKN035
     FM251600 26015G26KT P6SM SCT025 BKN040 PROB30 2516/2522 -SHRA
      BKN025
     FM252200 30018G27KT P6SM BKN030 BKN050
     FM260100 32008KT P6SM SCT040
      AMD LTD TO CLD VIS AND WIND TIL 251200=

USA.gov is the U.S. government's official web portal to all federal, state and local government web resources and services.